AFL102 UUBW-UWKD
Flight info
| Callsign | AFL102 |
|---|---|
| Flight time | 1h 10m |
| Altitude | 35000 |
| Route | KOGOM L94 UNORO T788 KOROM KOROM1P |
| Aircraft | B772/H-SDE2E3FGHIJ5LORVWXY/LB1D1 |
Departure
| Time | 2026-05-08 00:26 |
|---|---|
| Airport | Zhukovsky International Airport (UUBW) |
Arrival
| Time | 2026-05-08 01:36 |
|---|---|
| Airport | Kazan International Airport (UWKD) |
| Time | Latitude | Longitude | Altitude | Speed | Heading |
|---|---|---|---|---|---|
| 2026-05-08 00:08 | 55.55990 | 38.12356 | 409 ft | 2 kts | 131° |
| 2026-05-08 00:08 | 55.56000 | 38.12336 | 409 ft | 2 kts | 131° |
| 2026-05-08 00:09 | 55.56008 | 38.12320 | 409 ft | 0 kts | 131° |
| 2026-05-08 00:09 | 55.56016 | 38.12303 | 409 ft | 2 kts | 115° |
| 2026-05-08 00:09 | 55.56020 | 38.12278 | 408 ft | 2 kts | 91° |
| 2026-05-08 00:09 | 55.56018 | 38.12252 | 409 ft | 2 kts | 70° |
| 2026-05-08 00:10 | 55.56011 | 38.12229 | 409 ft | 2 kts | 47° |
| 2026-05-08 00:10 | 55.56006 | 38.12220 | 409 ft | 1 kts | 41° |
| 2026-05-08 00:10 | 55.56005 | 38.12219 | 409 ft | 0 kts | 41° |
| 2026-05-08 00:13 | 55.56014 | 38.12233 | 409 ft | 3 kts | 41° |
| 2026-05-08 00:14 | 55.56015 | 38.12234 | 409 ft | 0 kts | 41° |
| 2026-05-08 00:16 | 55.56021 | 38.12244 | 408 ft | 4 kts | 41° |
| 2026-05-08 00:16 | 55.56054 | 38.12295 | 408 ft | 8 kts | 41° |
| 2026-05-08 00:16 | 55.56103 | 38.12373 | 407 ft | 11 kts | 41° |
| 2026-05-08 00:16 | 55.56168 | 38.12481 | 406 ft | 13 kts | 58° |
| 2026-05-08 00:17 | 55.56145 | 38.12624 | 406 ft | 13 kts | 129° |
| 2026-05-08 00:17 | 55.56091 | 38.12774 | 406 ft | 15 kts | 112° |
| 2026-05-08 00:17 | 55.56028 | 38.12936 | 404 ft | 17 kts | 131° |
| 2026-05-08 00:17 | 55.55942 | 38.13108 | 402 ft | 19 kts | 131° |
| 2026-05-08 00:18 | 55.55846 | 38.13300 | 399 ft | 21 kts | 131° |
| 2026-05-08 00:18 | 55.55738 | 38.13512 | 395 ft | 24 kts | 132° |
| 2026-05-08 00:18 | 55.55618 | 38.13745 | 391 ft | 26 kts | 130° |
| 2026-05-08 00:18 | 55.55489 | 38.14005 | 386 ft | 29 kts | 131° |
| 2026-05-08 00:19 | 55.55348 | 38.14288 | 380 ft | 31 kts | 131° |
| 2026-05-08 00:19 | 55.55198 | 38.14588 | 376 ft | 33 kts | 131° |
| 2026-05-08 00:19 | 55.55043 | 38.14894 | 374 ft | 33 kts | 131° |
| 2026-05-08 00:19 | 55.54890 | 38.15203 | 375 ft | 33 kts | 131° |
| 2026-05-08 00:20 | 55.54738 | 38.15505 | 376 ft | 32 kts | 131° |
| 2026-05-08 00:20 | 55.54585 | 38.15808 | 376 ft | 32 kts | 132° |
| 2026-05-08 00:20 | 55.54434 | 38.16104 | 376 ft | 32 kts | 131° |
| 2026-05-08 00:20 | 55.54310 | 38.16347 | 376 ft | 7 kts | 131° |
| 2026-05-08 00:21 | 55.54271 | 38.16428 | 376 ft | 9 kts | 122° |
| 2026-05-08 00:21 | 55.54274 | 38.16480 | 376 ft | 5 kts | 68° |
| 2026-05-08 00:21 | 55.54298 | 38.16540 | 376 ft | 7 kts | 43° |
| 2026-05-08 00:21 | 55.54340 | 38.16610 | 376 ft | 9 kts | 43° |
| 2026-05-08 00:22 | 55.54385 | 38.16708 | 374 ft | 12 kts | 82° |
| 2026-05-08 00:22 | 55.54341 | 38.16858 | 373 ft | 15 kts | 129° |
| 2026-05-08 00:22 | 55.54269 | 38.16998 | 374 ft | 15 kts | 132° |
| 2026-05-08 00:22 | 55.54190 | 38.17152 | 373 ft | 18 kts | 131° |
| 2026-05-08 00:23 | 55.54097 | 38.17338 | 373 ft | 22 kts | 131° |
| 2026-05-08 00:23 | 55.53989 | 38.17552 | 373 ft | 23 kts | 131° |
| 2026-05-08 00:23 | 55.53878 | 38.17770 | 373 ft | 24 kts | 132° |
| 2026-05-08 00:23 | 55.53769 | 38.18002 | 373 ft | 24 kts | 116° |
| 2026-05-08 00:24 | 55.53704 | 38.18188 | 373 ft | 4 kts | 155° |
| 2026-05-08 00:24 | 55.53694 | 38.18170 | 373 ft | 1 kts | 266° |
| 2026-05-08 00:24 | 55.53696 | 38.18151 | 373 ft | 3 kts | 289° |
| 2026-05-08 00:24 | 55.53725 | 38.18081 | 373 ft | 10 kts | 311° |
| 2026-05-08 00:25 | 55.53737 | 38.18057 | 373 ft | 18 kts | 311° |
| 2026-05-08 00:25 | 55.53956 | 38.17622 | 373 ft | 84 kts | 311° |
| 2026-05-08 00:25 | 55.54485 | 38.16568 | 376 ft | 143 kts | 311° |
| 2026-05-08 00:25 | 55.55209 | 38.15075 | 634 ft | 163 kts | 308° |
| 2026-05-08 00:26 | 55.55962 | 38.13604 | 1301 ft | 162 kts | 310° |
| 2026-05-08 00:26 | 55.56677 | 38.12228 | 1970 ft | 153 kts | 306° |
| 2026-05-08 00:26 | 55.57372 | 38.10805 | 2003 ft | 152 kts | 307° |
| 2026-05-08 00:26 | 55.58069 | 38.09437 | 2013 ft | 148 kts | 307° |
| 2026-05-08 00:27 | 55.58658 | 38.07977 | 2016 ft | 145 kts | 290° |
| 2026-05-08 00:27 | 55.58929 | 38.06278 | 2016 ft | 144 kts | 272° |
| 2026-05-08 00:27 | 55.58859 | 38.04554 | 2017 ft | 142 kts | 255° |
| 2026-05-08 00:27 | 55.58459 | 38.02956 | 2016 ft | 141 kts | 237° |
| 2026-05-08 00:28 | 55.57776 | 38.01694 | 2016 ft | 143 kts | 220° |
| 2026-05-08 00:28 | 55.56866 | 38.00901 | 2018 ft | 151 kts | 201° |
| 2026-05-08 00:28 | 55.55806 | 38.00709 | 2025 ft | 165 kts | 180° |
| 2026-05-08 00:28 | 55.54633 | 38.01304 | 2192 ft | 189 kts | 156° |
| 2026-05-08 00:29 | 55.53613 | 38.02885 | 2518 ft | 205 kts | 124° |
| 2026-05-08 00:29 | 55.53145 | 38.05296 | 2920 ft | 215 kts | 105° |
| 2026-05-08 00:29 | 55.52519 | 38.07671 | 3003 ft | 211 kts | 136° |
| 2026-05-08 00:29 | 55.51493 | 38.09547 | 3019 ft | 214 kts | 139° |
| 2026-05-08 00:30 | 55.50480 | 38.11490 | 3017 ft | 216 kts | 129° |
| 2026-05-08 00:30 | 55.49920 | 38.13898 | 3008 ft | 216 kts | 96° |
| 2026-05-08 00:30 | 55.50127 | 38.16560 | 3297 ft | 222 kts | 65° |
| 2026-05-08 00:30 | 55.50755 | 38.19042 | 3861 ft | 222 kts | 62° |
| 2026-05-08 00:31 | 55.51405 | 38.21482 | 4002 ft | 222 kts | 63° |
| 2026-05-08 00:31 | 55.52068 | 38.24035 | 4030 ft | 238 kts | 64° |
| 2026-05-08 00:31 | 55.52768 | 38.26830 | 4028 ft | 260 kts | 64° |
| 2026-05-08 00:31 | 55.53509 | 38.29800 | 4025 ft | 266 kts | 64° |
| 2026-05-08 00:32 | 55.54255 | 38.32787 | 4021 ft | 267 kts | 64° |
| 2026-05-08 00:32 | 55.54969 | 38.35641 | 4021 ft | 268 kts | 64° |
| 2026-05-08 00:32 | 55.55723 | 38.38660 | 4020 ft | 267 kts | 64° |
| 2026-05-08 00:32 | 55.56498 | 38.41608 | 4021 ft | 267 kts | 59° |
| 2026-05-08 00:33 | 55.57444 | 38.44591 | 4220 ft | 285 kts | 57° |
| 2026-05-08 00:33 | 55.58449 | 38.47674 | 4719 ft | 292 kts | 57° |
| 2026-05-08 00:33 | 55.59491 | 38.50890 | 5277 ft | 297 kts | 58° |
| 2026-05-08 00:33 | 55.60523 | 38.54086 | 5847 ft | 301 kts | 58° |
| 2026-05-08 00:34 | 55.61637 | 38.57238 | 6368 ft | 303 kts | 45° |
| 2026-05-08 00:34 | 55.63290 | 38.59492 | 6841 ft | 298 kts | 18° |
| 2026-05-08 00:34 | 55.65290 | 38.60258 | 7446 ft | 284 kts | 352° |
| 2026-05-08 00:34 | 55.67218 | 38.59890 | 8027 ft | 280 kts | 343° |
| 2026-05-08 00:35 | 55.69135 | 38.59246 | 8601 ft | 281 kts | 341° |
| 2026-05-08 00:35 | 55.71052 | 38.58537 | 9173 ft | 282 kts | 340° |
| 2026-05-08 00:35 | 55.72996 | 38.57815 | 9725 ft | 285 kts | 343° |
| 2026-05-08 00:35 | 55.75016 | 38.57835 | 9995 ft | 304 kts | 6° |
| 2026-05-08 00:36 | 55.77014 | 38.59428 | 10146 ft | 328 kts | 28° |
| 2026-05-08 00:36 | 55.78883 | 38.61931 | 10323 ft | 346 kts | 34° |
| 2026-05-08 00:36 | 55.80822 | 38.64680 | 10507 ft | 362 kts | 34° |
| 2026-05-08 00:36 | 55.82864 | 38.67530 | 10656 ft | 378 kts | 34° |
| 2026-05-08 00:37 | 55.84902 | 38.70754 | 10825 ft | 396 kts | 44° |
| 2026-05-08 00:37 | 55.86607 | 38.74751 | 11142 ft | 409 kts | 57° |
| 2026-05-08 00:37 | 55.87906 | 38.79251 | 11626 ft | 415 kts | 64° |
| 2026-05-08 00:38 | 55.90318 | 38.88593 | 12918 ft | 419 kts | 64° |
| 2026-05-08 00:38 | 55.91546 | 38.93311 | 13517 ft | 423 kts | 64° |
| 2026-05-08 00:38 | 55.92810 | 38.98149 | 14161 ft | 428 kts | 64° |
| 2026-05-08 00:38 | 55.94066 | 39.02945 | 14846 ft | 431 kts | 64° |
| 2026-05-08 00:39 | 55.95314 | 39.07762 | 15638 ft | 432 kts | 66° |
| 2026-05-08 00:39 | 55.96250 | 39.12893 | 16450 ft | 433 kts | 77° |
| 2026-05-08 00:39 | 55.96708 | 39.18162 | 17088 ft | 437 kts | 84° |
| 2026-05-08 00:39 | 55.97010 | 39.23573 | 17761 ft | 441 kts | 85° |
| 2026-05-08 00:40 | 55.97302 | 39.29056 | 18492 ft | 443 kts | 85° |
| 2026-05-08 00:40 | 55.97588 | 39.34474 | 19153 ft | 447 kts | 85° |
| 2026-05-08 00:40 | 55.97882 | 39.40074 | 19824 ft | 450 kts | 85° |
| 2026-05-08 00:40 | 55.98169 | 39.45599 | 20457 ft | 453 kts | 85° |
| 2026-05-08 00:41 | 55.98460 | 39.51241 | 21057 ft | 457 kts | 85° |
| 2026-05-08 00:41 | 55.98753 | 39.56961 | 21668 ft | 461 kts | 85° |
| 2026-05-08 00:41 | 55.99107 | 39.62621 | 22303 ft | 463 kts | 79° |
| 2026-05-08 00:41 | 55.99911 | 39.68188 | 22918 ft | 465 kts | 70° |
| 2026-05-08 00:42 | 56.01188 | 39.73428 | 23454 ft | 468 kts | 62° |
| 2026-05-08 00:42 | 56.02717 | 39.78636 | 23983 ft | 472 kts | 61° |
| 2026-05-08 00:42 | 56.04234 | 39.83740 | 24540 ft | 475 kts | 61° |
| 2026-05-08 00:42 | 56.05782 | 39.88967 | 25115 ft | 478 kts | 60° |
| 2026-05-08 00:43 | 56.07355 | 39.94297 | 25606 ft | 482 kts | 61° |
| 2026-05-08 00:43 | 56.08914 | 39.99602 | 26095 ft | 486 kts | 60° |
| 2026-05-08 00:43 | 56.10482 | 40.04953 | 26535 ft | 490 kts | 61° |
| 2026-05-08 00:43 | 56.12065 | 40.10370 | 26975 ft | 495 kts | 60° |
| 2026-05-08 00:44 | 56.13657 | 40.15833 | 27433 ft | 499 kts | 60° |
| 2026-05-08 00:44 | 56.15258 | 40.21346 | 27904 ft | 502 kts | 60° |
| 2026-05-08 00:44 | 56.16875 | 40.26923 | 28343 ft | 505 kts | 60° |
| 2026-05-08 00:44 | 56.18506 | 40.32567 | 28797 ft | 509 kts | 60° |
| 2026-05-08 00:45 | 56.20141 | 40.38239 | 29289 ft | 511 kts | 60° |
| 2026-05-08 00:45 | 56.21770 | 40.43902 | 29831 ft | 511 kts | 60° |
| 2026-05-08 00:45 | 56.23403 | 40.49619 | 30487 ft | 509 kts | 62° |
| 2026-05-08 00:45 | 56.24708 | 40.55428 | 31155 ft | 508 kts | 70° |
| 2026-05-08 00:46 | 56.25534 | 40.61622 | 31843 ft | 506 kts | 79° |
| 2026-05-08 00:46 | 56.25831 | 40.67854 | 32373 ft | 506 kts | 89° |
| 2026-05-08 00:46 | 56.25705 | 40.74119 | 32814 ft | 507 kts | 93° |
| 2026-05-08 00:46 | 56.25480 | 40.80422 | 33263 ft | 507 kts | 93° |
| 2026-05-08 00:47 | 56.25237 | 40.86758 | 33742 ft | 506 kts | 93° |
| 2026-05-08 00:47 | 56.24987 | 40.93061 | 34272 ft | 504 kts | 93° |
| 2026-05-08 00:47 | 56.24735 | 40.99248 | 34773 ft | 503 kts | 93° |
| 2026-05-08 00:47 | 56.24469 | 41.05683 | 34897 ft | 506 kts | 93° |
| 2026-05-08 00:48 | 56.24202 | 41.11994 | 34899 ft | 506 kts | 93° |
| 2026-05-08 00:48 | 56.23657 | 41.24549 | 34909 ft | 514 kts | 93° |
| 2026-05-08 00:49 | 56.23079 | 41.37507 | 34906 ft | 528 kts | 93° |
| 2026-05-08 00:49 | 56.22471 | 41.50774 | 34913 ft | 537 kts | 94° |
| 2026-05-08 00:50 | 56.21841 | 41.64159 | 34910 ft | 535 kts | 94° |
| 2026-05-08 00:50 | 56.21202 | 41.77439 | 34895 ft | 535 kts | 94° |
| 2026-05-08 00:51 | 56.20551 | 41.90669 | 34905 ft | 534 kts | 94° |
| 2026-05-08 00:51 | 56.19884 | 42.03912 | 34907 ft | 535 kts | 95° |
| 2026-05-08 00:52 | 56.19205 | 42.17033 | 34905 ft | 531 kts | 95° |
| 2026-05-08 00:52 | 56.18497 | 42.30158 | 34915 ft | 530 kts | 95° |
| 2026-05-08 00:53 | 56.17775 | 42.43294 | 34906 ft | 532 kts | 95° |
| 2026-05-08 00:53 | 56.17034 | 42.56519 | 34905 ft | 531 kts | 94° |
| 2026-05-08 00:54 | 56.16283 | 42.69670 | 34904 ft | 528 kts | 95° |
| 2026-05-08 00:54 | 56.15524 | 42.82722 | 34901 ft | 529 kts | 95° |
| 2026-05-08 00:55 | 56.14748 | 42.95805 | 34905 ft | 526 kts | 95° |
| 2026-05-08 00:55 | 56.13964 | 43.08815 | 34908 ft | 524 kts | 95° |
| 2026-05-08 00:56 | 56.13164 | 43.21843 | 34903 ft | 526 kts | 95° |
| 2026-05-08 00:56 | 56.12890 | 43.34905 | 34901 ft | 525 kts | 89° |
| 2026-05-08 00:57 | 56.12850 | 43.47990 | 34896 ft | 525 kts | 89° |
| 2026-05-08 00:57 | 56.12764 | 43.61023 | 34894 ft | 523 kts | 89° |
| 2026-05-08 00:58 | 56.12644 | 43.74069 | 34890 ft | 523 kts | 90° |
| 2026-05-08 00:58 | 56.12501 | 43.86961 | 34889 ft | 523 kts | 91° |
| 2026-05-08 00:59 | 56.12338 | 43.99990 | 34892 ft | 521 kts | 91° |
| 2026-05-08 00:59 | 56.12158 | 44.12924 | 34902 ft | 521 kts | 91° |
| 2026-05-08 01:00 | 56.11964 | 44.25844 | 34905 ft | 523 kts | 91° |
| 2026-05-08 01:00 | 56.11755 | 44.38757 | 34910 ft | 522 kts | 90° |
| 2026-05-08 01:01 | 56.11533 | 44.51598 | 34918 ft | 503 kts | 90° |
| 2026-05-08 01:01 | 56.11422 | 44.57706 | 34905 ft | 487 kts | 90° |
| 2026-05-08 01:01 | 56.11311 | 44.63724 | 34907 ft | 481 kts | 90° |
| 2026-05-08 01:02 | 56.11079 | 44.75809 | 34908 ft | 488 kts | 91° |
| 2026-05-08 01:02 | 56.10836 | 44.87809 | 34913 ft | 487 kts | 91° |
| 2026-05-08 01:03 | 56.10580 | 44.99886 | 34910 ft | 487 kts | 91° |
| 2026-05-08 01:03 | 56.10300 | 45.12062 | 34909 ft | 487 kts | 91° |
| 2026-05-08 01:04 | 56.10016 | 45.24099 | 34911 ft | 486 kts | 91° |
| 2026-05-08 01:04 | 56.09726 | 45.36146 | 34918 ft | 486 kts | 91° |
| 2026-05-08 01:05 | 56.09421 | 45.48267 | 34915 ft | 485 kts | 91° |
| 2026-05-08 01:05 | 56.09110 | 45.60187 | 34690 ft | 477 kts | 91° |
| 2026-05-08 01:05 | 56.08950 | 45.66140 | 33713 ft | 481 kts | 92° |
| 2026-05-08 01:06 | 56.08787 | 45.72124 | 32632 ft | 487 kts | 92° |
| 2026-05-08 01:06 | 56.08620 | 45.78150 | 31743 ft | 489 kts | 92° |
| 2026-05-08 01:06 | 56.08449 | 45.84184 | 30881 ft | 490 kts | 93° |
| 2026-05-08 01:06 | 56.08274 | 45.90278 | 30211 ft | 486 kts | 93° |
| 2026-05-08 01:07 | 56.08098 | 45.96271 | 29755 ft | 479 kts | 93° |
| 2026-05-08 01:07 | 56.07924 | 46.02124 | 29248 ft | 474 kts | 93° |
| 2026-05-08 01:07 | 56.07748 | 46.07950 | 28708 ft | 469 kts | 93° |
| 2026-05-08 01:07 | 56.07571 | 46.13705 | 28173 ft | 465 kts | 93° |
| 2026-05-08 01:08 | 56.07392 | 46.19440 | 27635 ft | 460 kts | 92° |
| 2026-05-08 01:08 | 56.07212 | 46.25145 | 27102 ft | 456 kts | 92° |
| 2026-05-08 01:08 | 56.07031 | 46.30773 | 26566 ft | 452 kts | 93° |
| 2026-05-08 01:08 | 56.06851 | 46.36308 | 26039 ft | 448 kts | 93° |
| 2026-05-08 01:09 | 56.06667 | 46.41873 | 25504 ft | 444 kts | 92° |
| 2026-05-08 01:09 | 56.06476 | 46.47342 | 24964 ft | 440 kts | 95° |
| 2026-05-08 01:09 | 56.05962 | 46.52631 | 24447 ft | 436 kts | 104° |
| 2026-05-08 01:09 | 56.05014 | 46.57743 | 23924 ft | 432 kts | 110° |
| 2026-05-08 01:10 | 56.03969 | 46.62754 | 23398 ft | 429 kts | 110° |
| 2026-05-08 01:10 | 56.02923 | 46.67703 | 22876 ft | 426 kts | 111° |
| 2026-05-08 01:10 | 56.01878 | 46.72619 | 22344 ft | 423 kts | 111° |
| 2026-05-08 01:10 | 56.00837 | 46.77499 | 21815 ft | 420 kts | 111° |
| 2026-05-08 01:11 | 55.99806 | 46.82310 | 21289 ft | 417 kts | 111° |
| 2026-05-08 01:11 | 55.98768 | 46.87136 | 20755 ft | 415 kts | 111° |
| 2026-05-08 01:11 | 55.97745 | 46.91880 | 20232 ft | 412 kts | 111° |
| 2026-05-08 01:11 | 55.96713 | 46.96652 | 19697 ft | 410 kts | 111° |
| 2026-05-08 01:12 | 55.95692 | 47.01358 | 19165 ft | 407 kts | 111° |
| 2026-05-08 01:12 | 55.94683 | 47.06000 | 18638 ft | 405 kts | 111° |
| 2026-05-08 01:12 | 55.93660 | 47.10693 | 18099 ft | 403 kts | 111° |
| 2026-05-08 01:12 | 55.92618 | 47.15462 | 17555 ft | 401 kts | 111° |
| 2026-05-08 01:13 | 55.91599 | 47.20114 | 17019 ft | 399 kts | 111° |
| 2026-05-08 01:13 | 55.90601 | 47.24663 | 16498 ft | 398 kts | 111° |
| 2026-05-08 01:13 | 55.89573 | 47.29338 | 15946 ft | 396 kts | 111° |
| 2026-05-08 01:13 | 55.88561 | 47.33929 | 15403 ft | 394 kts | 111° |
| 2026-05-08 01:14 | 55.87552 | 47.38495 | 14861 ft | 392 kts | 111° |
| 2026-05-08 01:14 | 55.86554 | 47.43003 | 14332 ft | 391 kts | 111° |
| 2026-05-08 01:14 | 55.85547 | 47.47542 | 13792 ft | 389 kts | 111° |
| 2026-05-08 01:14 | 55.84562 | 47.51971 | 13260 ft | 387 kts | 111° |
| 2026-05-08 01:15 | 55.83573 | 47.56410 | 12729 ft | 385 kts | 111° |
| 2026-05-08 01:15 | 55.82587 | 47.60826 | 12196 ft | 383 kts | 111° |
| 2026-05-08 01:15 | 55.81588 | 47.65289 | 11652 ft | 381 kts | 112° |
| 2026-05-08 01:15 | 55.80597 | 47.69708 | 11108 ft | 379 kts | 112° |
| 2026-05-08 01:16 | 55.79628 | 47.74021 | 10663 ft | 374 kts | 111° |
| 2026-05-08 01:16 | 55.78679 | 47.78236 | 10554 ft | 359 kts | 111° |
| 2026-05-08 01:16 | 55.77742 | 47.82387 | 10444 ft | 346 kts | 111° |
| 2026-05-08 01:16 | 55.76843 | 47.86369 | 10328 ft | 334 kts | 111° |
| 2026-05-08 01:17 | 55.75995 | 47.90116 | 10208 ft | 323 kts | 111° |
| 2026-05-08 01:17 | 55.75168 | 47.93762 | 10087 ft | 312 kts | 111° |
| 2026-05-08 01:17 | 55.74360 | 47.97321 | 9933 ft | 304 kts | 111° |
| 2026-05-08 01:17 | 55.73570 | 48.00794 | 9578 ft | 304 kts | 111° |
| 2026-05-08 01:18 | 55.72749 | 48.04396 | 9203 ft | 304 kts | 112° |
| 2026-05-08 01:18 | 55.71946 | 48.07917 | 9009 ft | 298 kts | 112° |
| 2026-05-08 01:18 | 55.71175 | 48.11290 | 8618 ft | 300 kts | 112° |
| 2026-05-08 01:18 | 55.70388 | 48.14727 | 8246 ft | 300 kts | 112° |
| 2026-05-08 01:19 | 55.69612 | 48.18108 | 8002 ft | 296 kts | 112° |
| 2026-05-08 01:19 | 55.68834 | 48.21497 | 7678 ft | 294 kts | 112° |
| 2026-05-08 01:19 | 55.68064 | 48.24840 | 7293 ft | 294 kts | 112° |
| 2026-05-08 01:19 | 55.67296 | 48.28177 | 6952 ft | 291 kts | 112° |
| 2026-05-08 01:20 | 55.66528 | 48.31503 | 6633 ft | 288 kts | 112° |
| 2026-05-08 01:20 | 55.65773 | 48.34767 | 6321 ft | 286 kts | 112° |
| 2026-05-08 01:20 | 55.65016 | 48.38039 | 6010 ft | 283 kts | 112° |
| 2026-05-08 01:20 | 55.64270 | 48.41258 | 5703 ft | 280 kts | 112° |
| 2026-05-08 01:21 | 55.63535 | 48.44421 | 5396 ft | 278 kts | 112° |
| 2026-05-08 01:21 | 55.62814 | 48.47583 | 5086 ft | 276 kts | 108° |
| 2026-05-08 01:21 | 55.62506 | 48.50877 | 4839 ft | 271 kts | 93° |
| 2026-05-08 01:21 | 55.62435 | 48.54218 | 4722 ft | 271 kts | 91° |
| 2026-05-08 01:22 | 55.62389 | 48.57517 | 4600 ft | 271 kts | 91° |
| 2026-05-08 01:22 | 55.62340 | 48.60842 | 4457 ft | 269 kts | 91° |
| 2026-05-08 01:22 | 55.62288 | 48.64133 | 4314 ft | 269 kts | 91° |
| 2026-05-08 01:22 | 55.62234 | 48.67457 | 4166 ft | 268 kts | 92° |
| 2026-05-08 01:23 | 55.62180 | 48.70729 | 4022 ft | 267 kts | 92° |
| 2026-05-08 01:23 | 55.62125 | 48.73994 | 3880 ft | 266 kts | 92° |
| 2026-05-08 01:23 | 55.62069 | 48.77230 | 3737 ft | 265 kts | 92° |
| 2026-05-08 01:23 | 55.62013 | 48.80481 | 3595 ft | 264 kts | 92° |
| 2026-05-08 01:24 | 55.61956 | 48.83705 | 3459 ft | 264 kts | 92° |
| 2026-05-08 01:24 | 55.61898 | 48.86925 | 3321 ft | 263 kts | 92° |
| 2026-05-08 01:24 | 55.61839 | 48.90171 | 3179 ft | 261 kts | 92° |
| 2026-05-08 01:24 | 55.61968 | 48.93325 | 3021 ft | 257 kts | 70° |
| 2026-05-08 01:25 | 55.62863 | 48.96045 | 2890 ft | 257 kts | 50° |
| 2026-05-08 01:25 | 55.64156 | 48.98148 | 2749 ft | 253 kts | 43° |
| 2026-05-08 01:25 | 55.65097 | 49.00673 | 2598 ft | 245 kts | 74° |
| 2026-05-08 01:25 | 55.65246 | 49.03590 | 2504 ft | 235 kts | 94° |
| 2026-05-08 01:26 | 55.65142 | 49.06438 | 2487 ft | 225 kts | 95° |
| 2026-05-08 01:26 | 55.64862 | 49.09103 | 2297 ft | 220 kts | 118° |
| 2026-05-08 01:26 | 55.63882 | 49.11058 | 1984 ft | 218 kts | 151° |
| 2026-05-08 01:26 | 55.62438 | 49.11698 | 1690 ft | 219 kts | 183° |
| 2026-05-08 01:27 | 55.61000 | 49.10766 | 1388 ft | 224 kts | 217° |
| 2026-05-08 01:27 | 55.60148 | 49.08601 | 1411 ft | 213 kts | 253° |
| 2026-05-08 01:27 | 55.60033 | 49.06079 | 1448 ft | 207 kts | 270° |
| 2026-05-08 01:27 | 55.60096 | 49.03364 | 1725 ft | 227 kts | 270° |
| 2026-05-08 01:28 | 55.60176 | 49.00542 | 1983 ft | 232 kts | 271° |
| 2026-05-08 01:28 | 55.60317 | 48.97751 | 1979 ft | 231 kts | 285° |
| 2026-05-08 01:28 | 55.60979 | 48.95164 | 1991 ft | 233 kts | 297° |
| 2026-05-08 01:28 | 55.61751 | 48.92664 | 1993 ft | 232 kts | 298° |
| 2026-05-08 01:29 | 55.62526 | 48.90161 | 1988 ft | 232 kts | 298° |
| 2026-05-08 01:29 | 55.63527 | 48.87951 | 1977 ft | 233 kts | 324° |
| 2026-05-08 01:29 | 55.64920 | 48.86456 | 1988 ft | 236 kts | 330° |
| 2026-05-08 01:29 | 55.66397 | 48.85245 | 1973 ft | 234 kts | 348° |
| 2026-05-08 01:30 | 55.68007 | 48.85326 | 1980 ft | 235 kts | 16° |
| 2026-05-08 01:30 | 55.69513 | 48.86481 | 1988 ft | 235 kts | 29° |
| 2026-05-08 01:30 | 55.70831 | 48.88108 | 1973 ft | 232 kts | 50° |
| 2026-05-08 01:30 | 55.71719 | 48.90476 | 1973 ft | 229 kts | 75° |
| 2026-05-08 01:31 | 55.72022 | 48.93230 | 1990 ft | 228 kts | 84° |
| 2026-05-08 01:31 | 55.72218 | 48.96006 | 1986 ft | 225 kts | 89° |
| 2026-05-08 01:31 | 55.71923 | 48.98664 | 1977 ft | 220 kts | 120° |
| 2026-05-08 01:31 | 55.71115 | 49.00885 | 1981 ft | 209 kts | 127° |
| 2026-05-08 01:32 | 55.70298 | 49.02914 | 1984 ft | 198 kts | 127° |
| 2026-05-08 01:32 | 55.69544 | 49.04827 | 1979 ft | 179 kts | 126° |
| 2026-05-08 01:32 | 55.68882 | 49.06538 | 1982 ft | 160 kts | 126° |
| 2026-05-08 01:32 | 55.68281 | 49.08101 | 1990 ft | 147 kts | 126° |
| 2026-05-08 01:33 | 55.67715 | 49.09568 | 1985 ft | 143 kts | 126° |
| 2026-05-08 01:33 | 55.67151 | 49.11032 | 1988 ft | 142 kts | 126° |
| 2026-05-08 01:33 | 55.66594 | 49.12476 | 1988 ft | 142 kts | 126° |
| 2026-05-08 01:33 | 55.66034 | 49.13925 | 1863 ft | 142 kts | 126° |
| 2026-05-08 01:34 | 55.65485 | 49.15345 | 1680 ft | 139 kts | 126° |
| 2026-05-08 01:34 | 55.64943 | 49.16748 | 1500 ft | 138 kts | 125° |
| 2026-05-08 01:34 | 55.64399 | 49.18158 | 1315 ft | 139 kts | 125° |
| 2026-05-08 01:34 | 55.63856 | 49.19555 | 1130 ft | 139 kts | 125° |
| 2026-05-08 01:35 | 55.63312 | 49.20963 | 943 ft | 139 kts | 123° |
| 2026-05-08 01:35 | 55.62751 | 49.22391 | 728 ft | 141 kts | 124° |
| 2026-05-08 01:35 | 55.62219 | 49.23800 | 558 ft | 137 kts | 123° |
| 2026-05-08 01:35 | 55.61676 | 49.25168 | 376 ft | 135 kts | 124° |
| 2026-05-08 01:36 | 55.61204 | 49.26387 | 366 ft | 100 kts | 123° |
| 2026-05-08 01:36 | 55.60895 | 49.27191 | 380 ft | 55 kts | 125° |
| 2026-05-08 01:36 | 55.60725 | 49.27629 | 389 ft | 39 kts | 123° |
| 2026-05-08 01:36 | 55.60576 | 49.28006 | 395 ft | 34 kts | 125° |
| 2026-05-08 01:37 | 55.60453 | 49.28337 | 400 ft | 30 kts | 124° |
| 2026-05-08 01:37 | 55.60404 | 49.28566 | 403 ft | 16 kts | 62° |
| 2026-05-08 01:37 | 55.60466 | 49.28664 | 406 ft | 11 kts | 36° |
| 2026-05-08 01:37 | 55.60526 | 49.28739 | 409 ft | 9 kts | 35° |
| 2026-05-08 01:38 | 55.60573 | 49.28812 | 411 ft | 8 kts | 62° |
| 2026-05-08 01:38 | 55.60582 | 49.28928 | 411 ft | 10 kts | 94° |
| 2026-05-08 01:38 | 55.60577 | 49.29070 | 413 ft | 11 kts | 94° |
| 2026-05-08 01:38 | 55.60611 | 49.29185 | 413 ft | 11 kts | 35° |
| 2026-05-08 01:39 | 55.60635 | 49.29214 | 414 ft | 0 kts | 35° |
| 2026-05-08 01:41 | 55.60665 | 49.29252 | 415 ft | 11 kts | 35° |
| 2026-05-08 01:41 | 55.60754 | 49.29353 | 415 ft | 17 kts | 32° |
| 2026-05-08 01:41 | 55.60798 | 49.29525 | 414 ft | 15 kts | 117° |
| 2026-05-08 01:41 | 55.60738 | 49.29674 | 418 ft | 14 kts | 124° |
| 2026-05-08 01:42 | 55.60678 | 49.29829 | 419 ft | 15 kts | 124° |
| 2026-05-08 01:42 | 55.60614 | 49.29995 | 421 ft | 16 kts | 124° |
| 2026-05-08 01:42 | 55.60609 | 49.30087 | 422 ft | 7 kts | 47° |
| 2026-05-08 01:42 | 55.60636 | 49.30128 | 423 ft | 0 kts | 36° |
| 2026-05-08 01:43 | 55.60638 | 49.30132 | 423 ft | 0 kts | 37° |